sensor_id;sensor_type;location;lat;lon;timestamp;temperature;humidity
20732;DHT22;10527;52.124;5.196;2022-09-03T00:01:50;19.70;99.90
20732;DHT22;10527;52.124;5.196;2022-09-03T00:04:29;19.70;99.90
20732;DHT22;10527;52.124;5.196;2022-09-03T00:07:07;19.60;99.90
20732;DHT22;10527;52.124;5.196;2022-09-03T00:09:47;19.50;99.90
20732;DHT22;10527;52.124;5.196;2022-09-03T00:12:25;19.60;99.90
20732;DHT22;10527;52.124;5.196;2022-09-03T00:15:02;19.50;99.90
20732;DHT22;10527;52.124;5.196;2022-09-03T00:20:44;19.50;99.90
20732;DHT22;10527;52.124;5.196;2022-09-03T00:23:27;19.30;99.90
20732;DHT22;10527;52.124;5.196;2022-09-03T00:26:17;19.30;99.90
20732;DHT22;10527;52.124;5.196;2022-09-03T00:29:00;19.30;99.90
20732;DHT22;10527;52.124;5.196;2022-09-03T00:32:20;19.20;99.90
20732;DHT22;10527;52.124;5.196;2022-09-03T00:34:34;19.20;99.90
20732;DHT22;10527;52.124;5.196;2022-09-03T00:37:10;19.10;99.90
20732;DHT22;10527;52.124;5.196;2022-09-03T00:39:41;19.20;99.90
20732;DHT22;10527;52.124;5.196;2022-09-03T00:42:25;19.10;99.90
20732;DHT22;10527;52.124;5.196;2022-09-03T00:48:21;19.10;99.90
20732;DHT22;10527;52.124;5.196;2022-09-03T00:54:19;19.10;99.90
20732;DHT22;10527;52.124;5.196;2022-09-03T01:00:11;19.00;99.90
20732;DHT22;10527;52.124;5.196;2022-09-03T01:03:01;19.00;99.90
20732;DHT22;10527;52.124;5.196;2022-09-03T01:06:23;19.00;99.90
20732;DHT22;10527;52.124;5.196;2022-09-03T01:09:08;19.00;99.90
20732;DHT22;10527;52.124;5.196;2022-09-03T01:24:26;19.00;99.90
20732;DHT22;10527;52.124;5.196;2022-09-03T01:27:48;18.90;99.90
20732;DHT22;10527;52.124;5.196;2022-09-03T01:39:48;18.90;99.90
20732;DHT22;10527;52.124;5.196;2022-09-03T01:42:49;19.00;99.90
20732;DHT22;10527;52.124;5.196;2022-09-03T01:45:46;19.00;99.90
20732;DHT22;10527;52.124;5.196;2022-09-03T01:48:46;19.00;99.90
20732;DHT22;10527;52.124;5.196;2022-09-03T01:51:29;19.00;99.90
20732;DHT22;10527;52.124;5.196;2022-09-03T01:54:23;19.00;99.90
20732;DHT22;10527;52.124;5.196;2022-09-03T02:00:19;18.90;99.90
20732;DHT22;10527;52.124;5.196;2022-09-03T02:02:50;18.90;99.90
20732;DHT22;10527;52.124;5.196;2022-09-03T02:05:30;18.90;99.90
20732;DHT22;10527;52.124;5.196;2022-09-03T02:08:04;18.90;99.90
20732;DHT22;10527;52.124;5.196;2022-09-03T02:10:51;18.80;99.90
20732;DHT22;10527;52.124;5.196;2022-09-03T02:16:10;18.70;99.90
20732;DHT22;10527;52.124;5.196;2022-09-03T02:18:43;18.60;99.90
20732;DHT22;10527;52.124;5.196;2022-09-03T02:21:16;18.60;99.90
20732;DHT22;10527;52.124;5.196;2022-09-03T02:23:46;18.60;99.90
20732;DHT22;10527;52.124;5.196;2022-09-03T02:26:17;18.60;99.90
20732;DHT22;10527;52.124;5.196;2022-09-03T02:28:50;18.60;99.90
20732;DHT22;10527;52.124;5.196;2022-09-03T02:31:18;18.60;99.90
20732;DHT22;10527;52.124;5.196;2022-09-03T02:33:47;18.50;99.90
20732;DHT22;10527;52.124;5.196;2022-09-03T02:36:23;18.50;99.90
20732;DHT22;10527;52.124;5.196;2022-09-03T02:38:59;18.40;99.90
20732;DHT22;10527;52.124;5.196;2022-09-03T02:41:26;18.50;99.90
20732;DHT22;10527;52.124;5.196;2022-09-03T02:46:49;18.40;99.90
20732;DHT22;10527;52.124;5.196;2022-09-03T02:49:19;18.30;99.90
20732;DHT22;10527;52.124;5.196;2022-09-03T02:51:46;18.40;99.90
20732;DHT22;10527;52.124;5.196;2022-09-03T02:54:13;18.30;99.90
20732;DHT22;10527;52.124;5.196;2022-09-03T02:56:46;18.30;99.90
20732;DHT22;10527;52.124;5.196;2022-09-03T02:59:18;18.30;99.90
20732;DHT22;10527;52.124;5.196;2022-09-03T03:01:45;18.20;99.90
20732;DHT22;10527;52.124;5.196;2022-09-03T03:04:12;18.20;99.90
20732;DHT22;10527;52.124;5.196;2022-09-03T03:06:39;18.30;99.90
20732;DHT22;10527;52.124;5.196;2022-09-03T03:09:13;18.30;99.90
20732;DHT22;10527;52.124;5.196;2022-09-03T03:11:40;18.20;99.90
20732;DHT22;10527;52.124;5.196;2022-09-03T03:14:06;18.20;99.90
20732;DHT22;10527;52.124;5.196;2022-09-03T03:16:33;18.10;99.90
20732;DHT22;10527;52.124;5.196;2022-09-03T03:19:01;18.30;99.90
20732;DHT22;10527;52.124;5.196;2022-09-03T03:21:27;18.30;99.90
20732;DHT22;10527;52.124;5.196;2022-09-03T03:23:54;18.30;99.90
20732;DHT22;10527;52.124;5.196;2022-09-03T03:26:21;18.20;99.90
20732;DHT22;10527;52.124;5.196;2022-09-03T03:28:54;18.20;99.90
20732;DHT22;10527;52.124;5.196;2022-09-03T03:31:23;18.20;99.90
20732;DHT22;10527;52.124;5.196;2022-09-03T03:33:51;18.10;99.90
20732;DHT22;10527;52.124;5.196;2022-09-03T03:36:25;18.10;99.90
20732;DHT22;10527;52.124;5.196;2022-09-03T03:38:56;18.00;99.90
20732;DHT22;10527;52.124;5.196;2022-09-03T03:41:26;18.10;99.90
20732;DHT22;10527;52.124;5.196;2022-09-03T03:43:58;18.10;99.90
20732;DHT22;10527;52.124;5.196;2022-09-03T03:46:36;18.10;99.90
20732;DHT22;10527;52.124;5.196;2022-09-03T03:49:05;18.00;99.90
20732;DHT22;10527;52.124;5.196;2022-09-03T03:51:34;17.90;99.90
20732;DHT22;10527;52.124;5.196;2022-09-03T03:54:01;18.00;99.90
20732;DHT22;10527;52.124;5.196;2022-09-03T03:56:31;17.90;99.90
20732;DHT22;10527;52.124;5.196;2022-09-03T03:58:59;17.90;99.90
20732;DHT22;10527;52.124;5.196;2022-09-03T04:01:27;17.90;99.90
20732;DHT22;10527;52.124;5.196;2022-09-03T04:03:55;17.90;99.90
20732;DHT22;10527;52.124;5.196;2022-09-03T04:06:23;17.80;99.90
20732;DHT22;10527;52.124;5.196;2022-09-03T04:08:50;17.90;99.90
20732;DHT22;10527;52.124;5.196;2022-09-03T04:11:19;17.80;99.90
20732;DHT22;10527;52.124;5.196;2022-09-03T04:13:49;17.80;99.90
20732;DHT22;10527;52.124;5.196;2022-09-03T04:16:19;17.70;99.90
20732;DHT22;10527;52.124;5.196;2022-09-03T04:18:48;17.80;99.90
20732;DHT22;10527;52.124;5.196;2022-09-03T04:21:18;17.80;99.90
20732;DHT22;10527;52.124;5.196;2022-09-03T04:23:47;17.80;99.90
20732;DHT22;10527;52.124;5.196;2022-09-03T04:26:22;17.70;99.90
20732;DHT22;10527;52.124;5.196;2022-09-03T04:28:50;17.70;99.90
20732;DHT22;10527;52.124;5.196;2022-09-03T04:31:19;17.70;99.90
20732;DHT22;10527;52.124;5.196;2022-09-03T04:33:46;17.60;99.90
20732;DHT22;10527;52.124;5.196;2022-09-03T04:36:18;17.60;99.90
20732;DHT22;10527;52.124;5.196;2022-09-03T04:38:52;17.60;99.90
20732;DHT22;10527;52.124;5.196;2022-09-03T04:41:30;17.60;99.90
20732;DHT22;10527;52.124;5.196;2022-09-03T04:43:58;17.70;99.90
20732;DHT22;10527;52.124;5.196;2022-09-03T04:46:26;17.70;99.90
20732;DHT22;10527;52.124;5.196;2022-09-03T04:49:00;17.80;99.90
20732;DHT22;10527;52.124;5.196;2022-09-03T04:51:27;17.80;99.90
20732;DHT22;10527;52.124;5.196;2022-09-03T04:53:57;17.70;99.90
20732;DHT22;10527;52.124;5.196;2022-09-03T04:56:32;17.60;99.90
20732;DHT22;10527;52.124;5.196;2022-09-03T04:59:05;17.60;99.90
20732;DHT22;10527;52.124;5.196;2022-09-03T05:01:36;17.60;99.90
20732;DHT22;10527;52.124;5.196;2022-09-03T05:04:05;17.60;99.90
20732;DHT22;10527;52.124;5.196;2022-09-03T05:06:34;17.60;99.90
20732;DHT22;10527;52.124;5.196;2022-09-03T05:09:02;17.60;99.90
20732;DHT22;10527;52.124;5.196;2022-09-03T05:11:31;17.50;99.90
20732;DHT22;10527;52.124;5.196;2022-09-03T05:14:00;17.50;99.90
20732;DHT22;10527;52.124;5.196;2022-09-03T05:16:28;17.40;99.90
20732;DHT22;10527;52.124;5.196;2022-09-03T05:18:57;17.40;99.90
20732;DHT22;10527;52.124;5.196;2022-09-03T05:21:27;17.30;99.90
20732;DHT22;10527;52.124;5.196;2022-09-03T05:23:55;17.30;99.90
20732;DHT22;10527;52.124;5.196;2022-09-03T05:26:25;17.30;99.90
20732;DHT22;10527;52.124;5.196;2022-09-03T05:28:55;17.20;99.90
20732;DHT22;10527;52.124;5.196;2022-09-03T05:31:26;17.30;99.90
20732;DHT22;10527;52.124;5.196;2022-09-03T05:34:00;17.40;99.90
20732;DHT22;10527;52.124;5.196;2022-09-03T05:36:31;17.50;99.90
20732;DHT22;10527;52.124;5.196;2022-09-03T05:39:04;17.50;99.90
20732;DHT22;10527;52.124;5.196;2022-09-03T05:41:32;17.60;99.90
20732;DHT22;10527;52.124;5.196;2022-09-03T05:43:59;17.60;99.90
20732;DHT22;10527;52.124;5.196;2022-09-03T05:46:29;17.60;99.90
20732;DHT22;10527;52.124;5.196;2022-09-03T05:49:03;17.60;99.90
20732;DHT22;10527;52.124;5.196;2022-09-03T05:51:33;17.60;99.90
20732;DHT22;10527;52.124;5.196;2022-09-03T05:54:01;17.60;99.90
20732;DHT22;10527;52.124;5.196;2022-09-03T05:56:31;17.60;99.90
20732;DHT22;10527;52.124;5.196;2022-09-03T05:59:03;17.60;99.90
20732;DHT22;10527;52.124;5.196;2022-09-03T06:01:38;17.60;99.90
20732;DHT22;10527;52.124;5.196;2022-09-03T06:04:15;17.50;99.90
20732;DHT22;10527;52.124;5.196;2022-09-03T06:06:44;17.40;99.90
20732;DHT22;10527;52.124;5.196;2022-09-03T06:09:19;17.40;99.90
20732;DHT22;10527;52.124;5.196;2022-09-03T06:11:49;17.40;99.90
20732;DHT22;10527;52.124;5.196;2022-09-03T06:14:18;17.40;99.90
20732;DHT22;10527;52.124;5.196;2022-09-03T06:16:46;17.40;99.90
20732;DHT22;10527;52.124;5.196;2022-09-03T06:19:16;17.30;99.90
20732;DHT22;10527;52.124;5.196;2022-09-03T06:21:43;17.30;99.90
20732;DHT22;10527;52.124;5.196;2022-09-03T06:24:21;17.40;99.90
20732;DHT22;10527;52.124;5.196;2022-09-03T06:26:57;17.40;99.90
20732;DHT22;10527;52.124;5.196;2022-09-03T06:29:23;17.40;99.90
20732;DHT22;10527;52.124;5.196;2022-09-03T06:31:50;17.40;99.90
20732;DHT22;10527;52.124;5.196;2022-09-03T06:34:17;17.40;99.90
20732;DHT22;10527;52.124;5.196;2022-09-03T06:36:44;17.50;99.90
20732;DHT22;10527;52.124;5.196;2022-09-03T06:39:11;17.50;99.90
20732;DHT22;10527;52.124;5.196;2022-09-03T06:41:38;17.50;99.90
20732;DHT22;10527;52.124;5.196;2022-09-03T06:44:07;17.40;99.90
20732;DHT22;10527;52.124;5.196;2022-09-03T06:46:38;17.60;99.90
20732;DHT22;10527;52.124;5.196;2022-09-03T06:49:11;17.60;99.90
20732;DHT22;10527;52.124;5.196;2022-09-03T06:51:39;17.60;99.90
20732;DHT22;10527;52.124;5.196;2022-09-03T06:54:08;17.70;99.90
20732;DHT22;10527;52.124;5.196;2022-09-03T06:56:38;17.70;99.90
20732;DHT22;10527;52.124;5.196;2022-09-03T06:59:12;17.80;99.90
20732;DHT22;10527;52.124;5.196;2022-09-03T07:01:41;17.80;99.90
20732;DHT22;10527;52.124;5.196;2022-09-03T07:04:13;17.80;99.90
20732;DHT22;10527;52.124;5.196;2022-09-03T07:06:44;17.90;99.90
20732;DHT22;10527;52.124;5.196;2022-09-03T07:09:12;17.90;99.90
20732;DHT22;10527;52.124;5.196;2022-09-03T07:11:40;17.90;99.90
20732;DHT22;10527;52.124;5.196;2022-09-03T07:14:15;17.90;99.90
20732;DHT22;10527;52.124;5.196;2022-09-03T07:16:43;17.90;99.90
20732;DHT22;10527;52.124;5.196;2022-09-03T07:19:11;18.00;99.90
20732;DHT22;10527;52.124;5.196;2022-09-03T07:21:40;18.00;99.90
20732;DHT22;10527;52.124;5.196;2022-09-03T07:24:15;18.00;99.90
20732;DHT22;10527;52.124;5.196;2022-09-03T07:26:45;18.10;99.90
20732;DHT22;10527;52.124;5.196;2022-09-03T07:29:15;18.20;99.90
20732;DHT22;10527;52.124;5.196;2022-09-03T07:31:47;18.20;99.90
20732;DHT22;10527;52.124;5.196;2022-09-03T07:34:20;18.30;99.90
20732;DHT22;10527;52.124;5.196;2022-09-03T07:36:51;18.30;99.90
20732;DHT22;10527;52.124;5.196;2022-09-03T07:39:19;18.30;99.90
20732;DHT22;10527;52.124;5.196;2022-09-03T07:41:46;18.40;99.90
20732;DHT22;10527;52.124;5.196;2022-09-03T07:44:15;18.40;99.90
20732;DHT22;10527;52.124;5.196;2022-09-03T07:46:44;18.60;99.90
20732;DHT22;10527;52.124;5.196;2022-09-03T07:49:13;18.60;99.90
20732;DHT22;10527;52.124;5.196;2022-09-03T07:51:40;18.70;99.90
20732;DHT22;10527;52.124;5.196;2022-09-03T07:54:09;18.70;99.90
20732;DHT22;10527;52.124;5.196;2022-09-03T07:56:38;18.80;99.90
20732;DHT22;10527;52.124;5.196;2022-09-03T07:59:06;18.90;99.90
20732;DHT22;10527;52.124;5.196;2022-09-03T08:01:35;18.90;99.90
20732;DHT22;10527;52.124;5.196;2022-09-03T08:04:05;19.00;99.90
20732;DHT22;10527;52.124;5.196;2022-09-03T08:06:37;19.00;99.90
20732;DHT22;10527;52.124;5.196;2022-09-03T08:09:07;19.10;99.90
20732;DHT22;10527;52.124;5.196;2022-09-03T08:11:37;19.50;99.90
20732;DHT22;10527;52.124;5.196;2022-09-03T08:14:06;19.90;99.90
20732;DHT22;10527;52.124;5.196;2022-09-03T08:16:40;20.20;99.90
20732;DHT22;10527;52.124;5.196;2022-09-03T08:19:09;20.60;99.90
20732;DHT22;10527;52.124;5.196;2022-09-03T08:21:40;20.80;99.90
20732;DHT22;10527;52.124;5.196;2022-09-03T08:24:08;21.20;99.90
20732;DHT22;10527;52.124;5.196;2022-09-03T08:26:39;21.30;99.90
20732;DHT22;10527;52.124;5.196;2022-09-03T08:29:11;21.70;99.90
20732;DHT22;10527;52.124;5.196;2022-09-03T08:31:38;21.90;99.90
20732;DHT22;10527;52.124;5.196;2022-09-03T08:34:06;22.30;99.90
20732;DHT22;10527;52.124;5.196;2022-09-03T08:36:35;22.40;99.90
20732;DHT22;10527;52.124;5.196;2022-09-03T08:39:05;22.60;99.90
20732;DHT22;10527;52.124;5.196;2022-09-03T08:44:59;23.10;99.90
20732;DHT22;10527;52.124;5.196;2022-09-03T08:47:32;23.40;99.90
20732;DHT22;10527;52.124;5.196;2022-09-03T08:55:21;23.90;99.90
20732;DHT22;10527;52.124;5.196;2022-09-03T09:00:56;24.10;99.90
20732;DHT22;10527;52.124;5.196;2022-09-03T09:04:04;24.10;99.90
20732;DHT22;10527;52.124;5.196;2022-09-03T09:12:28;24.40;99.90
20732;DHT22;10527;52.124;5.196;2022-09-03T09:15:15;24.60;99.90
20732;DHT22;10527;52.124;5.196;2022-09-03T09:21:12;24.70;99.90
20732;DHT22;10527;52.124;5.196;2022-09-03T09:23:49;24.80;99.90
20732;DHT22;10527;52.124;5.196;2022-09-03T09:26:20;24.90;99.90
20732;DHT22;10527;52.124;5.196;2022-09-03T09:29:03;24.90;99.90
20732;DHT22;10527;52.124;5.196;2022-09-03T09:31:37;25.00;99.90
20732;DHT22;10527;52.124;5.196;2022-09-03T09:34:08;25.10;99.90
20732;DHT22;10527;52.124;5.196;2022-09-03T09:36:48;25.40;99.90
20732;DHT22;10527;52.124;5.196;2022-09-03T09:39:19;25.40;99.90
20732;DHT22;10527;52.124;5.196;2022-09-03T09:42:01;25.30;99.90
20732;DHT22;10527;52.124;5.196;2022-09-03T09:44:39;25.50;99.90
20732;DHT22;10527;52.124;5.196;2022-09-03T09:47:25;25.60;99.90
20732;DHT22;10527;52.124;5.196;2022-09-03T09:49:57;25.70;99.90
20732;DHT22;10527;52.124;5.196;2022-09-03T09:52:26;25.90;99.90
20732;DHT22;10527;52.124;5.196;2022-09-03T09:55:25;25.90;99.90
20732;DHT22;10527;52.124;5.196;2022-09-03T09:58:07;26.00;99.90
20732;DHT22;10527;52.124;5.196;2022-09-03T10:00:39;25.90;99.90
20732;DHT22;10527;52.124;5.196;2022-09-03T10:03:10;25.90;99.90
20732;DHT22;10527;52.124;5.196;2022-09-03T10:05:39;26.20;99.90
20732;DHT22;10527;52.124;5.196;2022-09-03T10:08:19;26.20;99.90
20732;DHT22;10527;52.124;5.196;2022-09-03T10:10:48;26.30;99.90
20732;DHT22;10527;52.124;5.196;2022-09-03T10:13:34;26.20;99.90
20732;DHT22;10527;52.124;5.196;2022-09-03T10:16:24;26.20;99.90
20732;DHT22;10527;52.124;5.196;2022-09-03T10:19:22;26.30;99.90
20732;DHT22;10527;52.124;5.196;2022-09-03T10:22:16;26.50;99.90
20732;DHT22;10527;52.124;5.196;2022-09-03T10:24:55;26.70;99.90
20732;DHT22;10527;52.124;5.196;2022-09-03T10:27:24;26.80;99.90
20732;DHT22;10527;52.124;5.196;2022-09-03T10:29:52;26.80;99.90
20732;DHT22;10527;52.124;5.196;2022-09-03T10:33:04;26.90;99.90
20732;DHT22;10527;52.124;5.196;2022-09-03T10:36:04;26.70;99.90
20732;DHT22;10527;52.124;5.196;2022-09-03T10:39:07;26.80;99.90
20732;DHT22;10527;52.124;5.196;2022-09-03T10:42:31;26.90;99.90
20732;DHT22;10527;52.124;5.196;2022-09-03T10:45:30;26.90;99.90
20732;DHT22;10527;52.124;5.196;2022-09-03T10:51:00;26.90;99.90
20732;DHT22;10527;52.124;5.196;2022-09-03T10:54:08;26.90;99.90
20732;DHT22;10527;52.124;5.196;2022-09-03T11:08:30;27.30;99.90
20732;DHT22;10527;52.124;5.196;2022-09-03T11:11:40;27.20;99.90
20732;DHT22;10527;52.124;5.196;2022-09-03T11:14:14;27.20;99.90
20732;DHT22;10527;52.124;5.196;2022-09-03T11:16:54;27.30;99.90
20732;DHT22;10527;52.124;5.196;2022-09-03T11:22:47;27.50;99.90
20732;DHT22;10527;52.124;5.196;2022-09-03T11:25:20;27.50;99.90
20732;DHT22;10527;52.124;5.196;2022-09-03T11:28:32;27.60;99.90
20732;DHT22;10527;52.124;5.196;2022-09-03T11:37:17;27.50;99.90
20732;DHT22;10527;52.124;5.196;2022-09-03T11:39:52;27.60;99.90
20732;DHT22;10527;52.124;5.196;2022-09-03T11:42:34;27.60;99.90
20732;DHT22;10527;52.124;5.196;2022-09-03T11:48:00;27.60;99.90
20732;DHT22;10527;52.124;5.196;2022-09-03T11:50:32;27.80;99.90
20732;DHT22;10527;52.124;5.196;2022-09-03T11:53:22;27.90;99.90
20732;DHT22;10527;52.124;5.196;2022-09-03T11:55:58;28.00;99.90
20732;DHT22;10527;52.124;5.196;2022-09-03T11:58:38;28.00;99.90
20732;DHT22;10527;52.124;5.196;2022-09-03T12:01:10;28.00;99.90
20732;DHT22;10527;52.124;5.196;2022-09-03T12:03:52;28.00;99.90
20732;DHT22;10527;52.124;5.196;2022-09-03T12:15:29;28.20;99.90
20732;DHT22;10527;52.124;5.196;2022-09-03T12:18:29;28.10;99.90
20732;DHT22;10527;52.124;5.196;2022-09-03T12:23:34;28.10;99.90
20732;DHT22;10527;52.124;5.196;2022-09-03T12:26:18;28.20;99.90
20732;DHT22;10527;52.124;5.196;2022-09-03T12:28:54;28.30;99.90
20732;DHT22;10527;52.124;5.196;2022-09-03T12:31:28;28.30;99.90
20732;DHT22;10527;52.124;5.196;2022-09-03T12:34:02;28.40;99.90
20732;DHT22;10527;52.124;5.196;2022-09-03T12:36:41;28.40;99.90
20732;DHT22;10527;52.124;5.196;2022-09-03T12:39:17;28.50;99.90
20732;DHT22;10527;52.124;5.196;2022-09-03T12:42:08;28.50;99.90
20732;DHT22;10527;52.124;5.196;2022-09-03T12:44:50;28.50;99.90
20732;DHT22;10527;52.124;5.196;2022-09-03T12:47:18;28.60;99.90
20732;DHT22;10527;52.124;5.196;2022-09-03T12:50:12;28.60;99.90
20732;DHT22;10527;52.124;5.196;2022-09-03T12:52:47;28.60;99.90
20732;DHT22;10527;52.124;5.196;2022-09-03T12:55:44;28.70;99.90
20732;DHT22;10527;52.124;5.196;2022-09-03T12:58:31;28.80;99.90
20732;DHT22;10527;52.124;5.196;2022-09-03T13:01:23;28.70;99.90
20732;DHT22;10527;52.124;5.196;2022-09-03T13:04:11;28.60;99.90
20732;DHT22;10527;52.124;5.196;2022-09-03T13:07:03;28.60;99.90
20732;DHT22;10527;52.124;5.196;2022-09-03T13:09:36;28.60;99.90
20732;DHT22;10527;52.124;5.196;2022-09-03T13:12:04;28.70;99.90
20732;DHT22;10527;52.124;5.196;2022-09-03T13:14:47;28.70;99.90
20732;DHT22;10527;52.124;5.196;2022-09-03T13:17:42;28.80;99.90
20732;DHT22;10527;52.124;5.196;2022-09-03T13:34:58;28.60;99.90
20732;DHT22;10527;52.124;5.196;2022-09-03T13:37:53;28.80;99.90
20732;DHT22;10527;52.124;5.196;2022-09-03T13:40:40;28.60;99.90
20732;DHT22;10527;52.124;5.196;2022-09-03T13:46:59;28.80;99.90
20732;DHT22;10527;52.124;5.196;2022-09-03T13:52:57;28.80;99.90
20732;DHT22;10527;52.124;5.196;2022-09-03T14:12:41;28.90;99.90
20732;DHT22;10527;52.124;5.196;2022-09-03T14:15:23;29.00;99.90
20732;DHT22;10527;52.124;5.196;2022-09-03T14:24:42;29.20;99.90
20732;DHT22;10527;52.124;5.196;2022-09-03T14:27:22;29.30;99.90
20732;DHT22;10527;52.124;5.196;2022-09-03T14:30:02;29.10;99.90
20732;DHT22;10527;52.124;5.196;2022-09-03T14:39:00;29.20;99.90
20732;DHT22;10527;52.124;5.196;2022-09-03T14:48:11;29.60;99.90
20732;DHT22;10527;52.124;5.196;2022-09-03T14:51:02;29.70;99.90
20732;DHT22;10527;52.124;5.196;2022-09-03T14:57:09;29.70;99.90
20732;DHT22;10527;52.124;5.196;2022-09-03T15:00:13;29.70;99.90
20732;DHT22;10527;52.124;5.196;2022-09-03T15:06:23;29.80;99.90
20732;DHT22;10527;52.124;5.196;2022-09-03T15:14:51;29.90;99.90
20732;DHT22;10527;52.124;5.196;2022-09-03T15:17:46;29.90;99.90
20732;DHT22;10527;52.124;5.196;2022-09-03T15:23:11;29.90;99.90
20732;DHT22;10527;52.124;5.196;2022-09-03T15:32:02;29.90;99.90
20732;DHT22;10527;52.124;5.196;2022-09-03T15:35:07;29.90;99.90
20732;DHT22;10527;52.124;5.196;2022-09-03T15:37:57;29.90;99.90
20732;DHT22;10527;52.124;5.196;2022-09-03T15:40:31;29.90;99.90
20732;DHT22;10527;52.124;5.196;2022-09-03T15:43:30;29.90;99.90
20732;DHT22;10527;52.124;5.196;2022-09-03T15:46:05;29.90;99.90
20732;DHT22;10527;52.124;5.196;2022-09-03T15:51:34;29.90;99.90
20732;DHT22;10527;52.124;5.196;2022-09-03T15:54:16;29.80;99.90
20732;DHT22;10527;52.124;5.196;2022-09-03T15:57:09;29.90;99.90
20732;DHT22;10527;52.124;5.196;2022-09-03T16:05:25;30.20;99.90
20732;DHT22;10527;52.124;5.196;2022-09-03T16:09:08;30.10;99.90
20732;DHT22;10527;52.124;5.196;2022-09-03T16:19:36;30.10;99.90
20732;DHT22;10527;52.124;5.196;2022-09-03T16:23:03;30.20;99.90
20732;DHT22;10527;52.124;5.196;2022-09-03T16:25:08;30.20;99.90
20732;DHT22;10527;52.124;5.196;2022-09-03T16:28:11;30.00;99.90
20732;DHT22;10527;52.124;5.196;2022-09-03T16:33:31;29.90;99.90
20732;DHT22;10527;52.124;5.196;2022-09-03T16:39:24;29.80;99.90
20732;DHT22;10527;52.124;5.196;2022-09-03T16:54:00;29.60;99.90
20732;DHT22;10527;52.124;5.196;2022-09-03T16:56:57;29.40;99.90
20732;DHT22;10527;52.124;5.196;2022-09-03T17:06:25;28.90;99.90
20732;DHT22;10527;52.124;5.196;2022-09-03T17:15:38;28.80;99.90
20732;DHT22;10527;52.124;5.196;2022-09-03T17:24:54;28.60;99.90
20732;DHT22;10527;52.124;5.196;2022-09-03T17:27:47;28.40;99.90
20732;DHT22;10527;52.124;5.196;2022-09-03T17:33:10;28.30;99.90
20732;DHT22;10527;52.124;5.196;2022-09-03T17:45:06;28.10;99.90
20732;DHT22;10527;52.124;5.196;2022-09-03T17:50:50;28.00;99.90
20732;DHT22;10527;52.124;5.196;2022-09-03T17:53:33;27.90;99.90
20732;DHT22;10527;52.124;5.196;2022-09-03T17:56:29;27.80;99.90
20732;DHT22;10527;52.124;5.196;2022-09-03T18:02:42;27.60;99.90
20732;DHT22;10527;52.124;5.196;2022-09-03T18:05:31;27.50;99.90
20732;DHT22;10527;52.124;5.196;2022-09-03T18:11:01;27.40;99.90
20732;DHT22;10527;52.124;5.196;2022-09-03T18:14:01;27.30;99.90
20732;DHT22;10527;52.124;5.196;2022-09-03T18:16:41;27.20;99.90
20732;DHT22;10527;52.124;5.196;2022-09-03T18:21:58;26.80;99.90
20732;DHT22;10527;52.124;5.196;2022-09-03T18:24:53;26.70;99.90
20732;DHT22;10527;52.124;5.196;2022-09-03T18:28:04;26.50;99.90
20732;DHT22;10527;52.124;5.196;2022-09-03T18:30:54;26.40;99.90
20732;DHT22;10527;52.124;5.196;2022-09-03T18:33:40;26.40;99.90
20732;DHT22;10527;52.124;5.196;2022-09-03T18:36:25;26.40;99.90
20732;DHT22;10527;52.124;5.196;2022-09-03T18:39:15;26.40;99.90
20732;DHT22;10527;52.124;5.196;2022-09-03T18:42:24;26.50;99.90
20732;DHT22;10527;52.124;5.196;2022-09-03T19:03:07;25.60;99.90
20732;DHT22;10527;52.124;5.196;2022-09-03T19:09:52;25.40;99.90
20732;DHT22;10527;52.124;5.196;2022-09-03T19:13:24;25.30;99.90
20732;DHT22;10527;52.124;5.196;2022-09-03T19:17:30;25.30;99.90
20732;DHT22;10527;52.124;5.196;2022-09-03T19:20:30;25.30;99.90
20732;DHT22;10527;52.124;5.196;2022-09-03T19:23:21;25.10;99.90
20732;DHT22;10527;52.124;5.196;2022-09-03T19:37:07;24.70;99.90
20732;DHT22;10527;52.124;5.196;2022-09-03T19:43:42;24.50;99.90
20732;DHT22;10527;52.124;5.196;2022-09-03T19:47:07;24.40;99.90
20732;DHT22;10527;52.124;5.196;2022-09-03T19:50:19;24.40;99.90
20732;DHT22;10527;52.124;5.196;2022-09-03T19:53:17;24.50;99.90
20732;DHT22;10527;52.124;5.196;2022-09-03T19:56:12;24.50;99.90
20732;DHT22;10527;52.124;5.196;2022-09-03T19:59:19;24.30;99.90
20732;DHT22;10527;52.124;5.196;2022-09-03T20:02:07;24.30;99.90
20732;DHT22;10527;52.124;5.196;2022-09-03T20:04:58;24.10;99.90
20732;DHT22;10527;52.124;5.196;2022-09-03T20:07:50;24.00;99.90
20732;DHT22;10527;52.124;5.196;2022-09-03T20:10:41;23.80;99.90
20732;DHT22;10527;52.124;5.196;2022-09-03T20:13:12;23.80;99.90
20732;DHT22;10527;52.124;5.196;2022-09-03T20:16:04;23.80;99.90
20732;DHT22;10527;52.124;5.196;2022-09-03T20:18:45;23.60;99.90
20732;DHT22;10527;52.124;5.196;2022-09-03T20:21:48;23.60;99.90
20732;DHT22;10527;52.124;5.196;2022-09-03T20:30:55;23.30;99.90
20732;DHT22;10527;52.124;5.196;2022-09-03T20:34:24;23.50;99.90
20732;DHT22;10527;52.124;5.196;2022-09-03T20:39:48;23.50;99.90
20732;DHT22;10527;52.124;5.196;2022-09-03T20:42:43;23.40;99.90
20732;DHT22;10527;52.124;5.196;2022-09-03T20:48:47;23.20;99.90
20732;DHT22;10527;52.124;5.196;2022-09-03T20:51:44;23.20;99.90
20732;DHT22;10527;52.124;5.196;2022-09-03T20:57:39;23.10;99.90
20732;DHT22;10527;52.124;5.196;2022-09-03T21:00:21;23.00;99.90
20732;DHT22;10527;52.124;5.196;2022-09-03T21:03:29;23.00;99.90
20732;DHT22;10527;52.124;5.196;2022-09-03T21:08:55;22.70;99.90
20732;DHT22;10527;52.124;5.196;2022-09-03T21:11:34;22.50;99.90
20732;DHT22;10527;52.124;5.196;2022-09-03T21:23:37;22.80;99.90
20732;DHT22;10527;52.124;5.196;2022-09-03T21:28:33;22.80;99.90
20732;DHT22;10527;52.124;5.196;2022-09-03T21:33:47;22.70;99.90
20732;DHT22;10527;52.124;5.196;2022-09-03T21:36:28;22.70;99.90
20732;DHT22;10527;52.124;5.196;2022-09-03T21:39:14;22.60;99.90
20732;DHT22;10527;52.124;5.196;2022-09-03T21:41:54;22.60;99.90
20732;DHT22;10527;52.124;5.196;2022-09-03T21:47:14;22.60;99.90
20732;DHT22;10527;52.124;5.196;2022-09-03T21:49:53;22.50;99.90
20732;DHT22;10527;52.124;5.196;2022-09-03T21:52:36;22.50;99.90
20732;DHT22;10527;52.124;5.196;2022-09-03T21:55:33;22.40;99.90
20732;DHT22;10527;52.124;5.196;2022-09-03T22:01:12;22.20;99.90
20732;DHT22;10527;52.124;5.196;2022-09-03T22:03:44;22.00;99.90
20732;DHT22;10527;52.124;5.196;2022-09-03T22:06:16;21.90;99.90
20732;DHT22;10527;52.124;5.196;2022-09-03T22:09:23;21.80;99.90
20732;DHT22;10527;52.124;5.196;2022-09-03T22:12:07;21.70;99.90
20732;DHT22;10527;52.124;5.196;2022-09-03T22:14:58;21.50;99.90
20732;DHT22;10527;52.124;5.196;2022-09-03T22:19:56;21.60;99.90
20732;DHT22;10527;52.124;5.196;2022-09-03T22:22:39;21.70;99.90
20732;DHT22;10527;52.124;5.196;2022-09-03T22:25:31;21.70;99.90